Time;durP1;ratioP1;P1;durP2;ratioP2;P2;SDS_P1;SDS_P2;PMS_P1;PMS_P2;Temp;Humidity;BMP_temperature;BMP_pressure;BME280_temperature;BME280_humidity;BME280_pressure;Samples;Min_cycle;Max_cycle;Signal;HPM_P1;HPM_P2
2021/06/07 00:02:11;;;;;;;;;;;;;;;30.66;28.36;94553.13;5116167;28;19934;-52
2021/06/07 00:04:38;;;;;;;;;;;;;;;31.13;27.73;94545.00;5114559;28;19926;-49
2021/06/07 00:07:06;;;;;;;;;;;;;;;31.32;27.33;94553.56;5116271;28;19927;-52
2021/06/07 00:09:33;;;;;;;;;;;;;;;30.64;28.08;94552.00;5115298;28;19919;-49
2021/06/07 00:12:02;;;;;;;;;;;;;;;30.69;28.91;94554.97;5114755;28;19920;-49
2021/06/07 00:14:30;;;;;;;;;;;;;;;30.72;28.60;94552.66;5116505;28;21266;-49
2021/06/07 00:16:58;;;;;;;;;;;;;;;30.96;28.26;94546.06;5113988;28;20261;-51
2021/06/07 00:19:26;;;;;;;;;;;;;;;30.29;29.54;94548.66;5115927;28;19915;-49
2021/06/07 00:21:53;;;;;;;;;;;;;;;30.83;28.53;94547.84;5114929;28;20234;-49
2021/06/07 00:24:21;;;;;;;;;;;;;;;31.04;28.72;94541.31;5098364;28;19915;-48
2021/06/07 00:26:48;;;;;;;;;;;;;;;30.74;29.09;94542.22;5115583;28;20325;-50
2021/06/07 00:29:15;;;;;;;;;;;;;;;30.32;29.91;94545.16;5115681;28;19947;-51
2021/06/07 00:31:42;;;;;;;;;;;;;;;30.41;29.82;94541.91;5115899;28;19920;-49
2021/06/07 00:34:10;;;;;;;;;;;;;;;30.29;29.89;94537.09;5113463;28;20211;-52
2021/06/07 00:36:37;;;;;;;;;;;;;;;30.45;29.77;94548.06;5115793;28;19916;-50
2021/06/07 00:39:05;;;;;;;;;;;;;;;30.44;30.14;94546.50;5113386;28;19924;-50
2021/06/07 00:41:32;;;;;;;;;;;;;;;29.86;30.49;94543.06;5115555;28;19915;-50
2021/06/07 00:44:00;;;;;;;;;;;;;;;30.24;30.00;94545.66;5115591;28;19915;-51
2021/06/07 00:46:28;;;;;;;;;;;;;;;30.06;30.07;94546.69;5116015;28;19916;-50
2021/06/07 00:48:55;;;;;;;;;;;;;;;29.66;30.51;94545.63;5115409;28;19924;-51
2021/06/07 00:51:22;;;;;;;;;;;;;;;30.02;29.92;94548.63;5115149;28;19915;-54
2021/06/07 00:53:49;;;;;;;;;;;;;;;30.46;29.52;94549.56;5115567;28;19923;-53
2021/06/07 00:56:17;;;;;;;;;;;;;;;30.34;29.64;94550.13;5115687;28;19934;-49
2021/06/07 00:58:46;;;;;;;;;;;;;;;29.85;30.33;94543.47;5114519;28;19923;-51
2021/06/07 01:01:14;;;;;;;;;;;;;;;30.23;29.97;94538.75;5115005;28;19920;-49
2021/06/07 01:03:42;;;;;;;;;;;;;;;29.73;30.92;94542.84;5115395;28;19916;-51
2021/06/07 01:06:09;;;;;;;;;;;;;;;30.28;30.16;94540.97;5113100;28;20318;-49
2021/06/07 01:08:36;;;;;;;;;;;;;;;30.60;29.31;94541.28;5114910;28;19927;-49
2021/06/07 01:11:04;;;;;;;;;;;;;;;30.03;30.22;94542.09;5115013;28;19931;-48
2021/06/07 01:13:31;;;;;;;;;;;;;;;29.90;30.27;94543.00;5115232;28;19931;-49
2021/06/07 01:15:58;;;;;;;;;;;;;;;29.92;30.22;94541.44;5114766;28;19931;-49
2021/06/07 01:18:27;;;;;;;;;;;;;;;29.70;30.78;94534.81;5115428;28;19920;-50
2021/06/07 01:20:54;;;;;;;;;;;;;;;29.36;30.90;94537.50;5113402;28;19919;-48
2021/06/07 01:23:21;;;;;;;;;;;;;;;29.46;31.11;94529.34;5114129;28;20249;-49
2021/06/07 01:25:48;;;;;;;;;;;;;;;29.95;30.22;94540.66;5115397;28;19923;-48
2021/06/07 01:28:16;;;;;;;;;;;;;;;29.56;30.62;94532.28;5114970;28;19919;-50
2021/06/07 01:31:02;;;;;;;;;;;;;;;30.55;28.82;94538.25;5112770;28;19924;-50
2021/06/07 01:33:30;;;;;;;;;;;;;;;30.54;29.11;94540.19;5114926;28;20302;-50
2021/06/07 01:35:58;;;;;;;;;;;;;;;30.34;29.58;94539.34;5115147;28;19920;-50
2021/06/07 01:38:46;;;;;;;;;;;;;;;29.94;30.15;94541.81;5114405;28;20271;-49
2021/06/07 01:41:14;;;;;;;;;;;;;;;30.21;29.68;94541.84;5114579;28;20316;-48
2021/06/07 01:43:41;;;;;;;;;;;;;;;30.91;28.98;94536.50;5113625;28;20423;-52
2021/06/07 01:46:08;;;;;;;;;;;;;;;30.08;30.39;94538.94;5115025;28;19920;-48
2021/06/07 01:48:35;;;;;;;;;;;;;;;30.15;30.45;94531.91;5114751;28;20318;-48
2021/06/07 01:51:03;;;;;;;;;;;;;;;29.71;31.01;94541.72;5114818;28;19923;-50
2021/06/07 01:53:30;;;;;;;;;;;;;;;30.05;30.23;94539.75;5114757;28;19915;-48
2021/06/07 01:55:59;;;;;;;;;;;;;;;29.77;30.42;94542.81;5115013;28;19923;-49
2021/06/07 01:58:44;;;;;;;;;;;;;;;29.92;30.36;94530.66;5114682;28;20298;-49
2021/06/07 02:01:13;;;;;;;;;;;;;;;29.77;30.49;94534.72;5113893;28;19916;-55
2021/06/07 02:03:41;;;;;;;;;;;;;;;29.71;30.38;94537.09;5113928;28;19923;-49
2021/06/07 02:06:09;;;;;;;;;;;;;;;29.65;30.84;94536.00;5114311;28;19927;-49
2021/06/07 02:08:36;;;;;;;;;;;;;;;30.28;29.57;94535.59;5113653;28;19919;-48
2021/06/07 02:11:07;;;;;;;;;;;;;;;29.82;30.40;94541.59;5113943;28;20259;-52
2021/06/07 02:13:36;;;;;;;;;;;;;;;29.68;30.91;94537.91;5114452;28;19927;-51
2021/06/07 02:16:05;;;;;;;;;;;;;;;29.85;30.28;94536.16;5113890;28;19915;-50
2021/06/07 02:18:34;;;;;;;;;;;;;;;29.52;31.16;94540.41;5112869;28;19916;-49
2021/06/07 02:21:00;;;;;;;;;;;;;;;30.12;30.06;94538.88;5114521;28;19920;-50
2021/06/07 02:23:27;;;;;;;;;;;;;;;29.84;30.76;94539.25;5092853;28;19916;-50
2021/06/07 02:25:57;;;;;;;;;;;;;;;29.71;31.10;94536.34;5114960;28;19916;-49
2021/06/07 02:28:24;;;;;;;;;;;;;;;29.69;30.95;94541.38;5114141;28;19934;-48
2021/06/07 02:30:54;;;;;;;;;;;;;;;29.71;31.25;94541.72;5114102;28;20353;-52
2021/06/07 02:33:21;;;;;;;;;;;;;;;29.19;32.03;94539.22;5114420;28;20269;-48
2021/06/07 02:35:48;;;;;;;;;;;;;;;29.96;30.50;94536.78;5117820;28;19935;-50
2021/06/07 02:38:15;;;;;;;;;;;;;;;29.67;30.95;94535.63;5118230;28;19927;-50
2021/06/07 02:40:43;;;;;;;;;;;;;;;29.91;30.33;94529.13;5117963;28;19946;-48
2021/06/07 02:43:10;;;;;;;;;;;;;;;29.94;29.98;94530.28;5118087;28;19943;-54
2021/06/07 02:45:37;;;;;;;;;;;;;;;29.58;30.90;94538.81;5118256;28;19942;-51
2021/06/07 02:48:04;;;;;;;;;;;;;;;30.16;29.58;94542.28;5117919;28;19919;-51
2021/06/07 02:50:32;;;;;;;;;;;;;;;30.27;29.49;94534.06;5118290;28;20338;-49
2021/06/07 02:52:59;;;;;;;;;;;;;;;30.17;29.99;94532.28;5118193;28;19923;-51
2021/06/07 02:55:28;;;;;;;;;;;;;;;29.45;31.04;94535.88;5118198;28;20345;-56
2021/06/07 02:57:55;;;;;;;;;;;;;;;30.26;29.46;94537.94;5117635;28;19921;-50
2021/06/07 03:00:25;;;;;;;;;;;;;;;29.49;30.77;94535.06;5118156;28;19916;-52
2021/06/07 03:02:53;;;;;;;;;;;;;;;30.18;29.91;94548.03;5117626;28;19927;-49
2021/06/07 03:05:20;;;;;;;;;;;;;;;29.61;30.84;94553.38;5117998;28;19943;-49
2021/06/07 03:07:47;;;;;;;;;;;;;;;29.82;30.29;94547.75;5117657;28;20322;-49
2021/06/07 03:10:14;;;;;;;;;;;;;;;29.94;30.34;94549.13;5117145;28;19927;-50
2021/06/07 03:12:41;;;;;;;;;;;;;;;29.85;30.51;94548.84;5117453;28;20342;-49
2021/06/07 03:15:10;;;;;;;;;;;;;;;29.25;31.41;94540.31;5117884;28;19920;-50
2021/06/07 03:17:37;;;;;;;;;;;;;;;29.57;31.46;94544.59;5117399;28;20238;-48
2021/06/07 03:20:05;;;;;;;;;;;;;;;29.56;31.10;94545.75;5117643;28;19923;-50
2021/06/07 03:22:33;;;;;;;;;;;;;;;29.83;30.58;94541.19;5117127;28;19919;-49
2021/06/07 03:25:00;;;;;;;;;;;;;;;29.78;31.04;94542.41;5099139;28;19915;-50
2021/06/07 03:27:27;;;;;;;;;;;;;;;29.63;30.86;94546.44;5117047;28;19923;-49
2021/06/07 03:29:54;;;;;;;;;;;;;;;29.85;30.69;94552.31;5099383;28;19927;-49
2021/06/07 03:32:21;;;;;;;;;;;;;;;29.81;30.73;94551.59;5117104;28;20306;-50
2021/06/07 03:34:47;;;;;;;;;;;;;;;29.40;31.74;94555.13;5117323;28;20306;-50
2021/06/07 03:37:15;;;;;;;;;;;;;;;29.83;30.91;94554.66;5116819;28;19938;-47
2021/06/07 03:39:42;;;;;;;;;;;;;;;29.77;30.74;94548.19;5116689;28;20253;-50
2021/06/07 03:42:09;;;;;;;;;;;;;;;29.72;30.58;94554.03;5116904;28;19915;-51
2021/06/07 03:44:36;;;;;;;;;;;;;;;29.50;31.06;94552.75;5116990;28;19946;-49
2021/06/07 03:47:04;;;;;;;;;;;;;;;29.57;30.61;94547.28;5115251;28;19915;-50
2021/06/07 03:49:30;;;;;;;;;;;;;;;29.56;30.55;94551.91;5116915;28;21162;-50
2021/06/07 03:51:57;;;;;;;;;;;;;;;29.43;31.28;94551.66;5117109;28;19951;-48
2021/06/07 03:54:24;;;;;;;;;;;;;;;30.47;29.60;94556.50;5116842;28;20204;-48
2021/06/07 03:56:51;;;;;;;;;;;;;;;29.51;31.12;94555.06;5116776;28;19926;-49
2021/06/07 03:59:19;;;;;;;;;;;;;;;29.33;32.08;94554.44;5116474;28;19927;-49
2021/06/07 04:01:47;;;;;;;;;;;;;;;29.51;31.62;94554.28;5117017;28;19939;-51
2021/06/07 04:04:14;;;;;;;;;;;;;;;30.05;30.81;94555.94;5098570;28;19923;-49
2021/06/07 04:06:40;;;;;;;;;;;;;;;29.58;31.77;94557.66;5116744;28;19923;-50
2021/06/07 04:09:08;;;;;;;;;;;;;;;29.84;31.04;94550.78;5115636;28;20420;-51
2021/06/07 04:11:34;;;;;;;;;;;;;;;29.53;31.44;94558.09;5116358;28;19923;-49
2021/06/07 04:14:01;;;;;;;;;;;;;;;29.90;30.67;94554.56;5116684;28;20222;-49
2021/06/07 04:16:28;;;;;;;;;;;;;;;24.83;40.56;94560.88;5113943;28;19957;-53
2021/06/07 04:18:55;;;;;;;;;;;;;;;30.59;29.69;94558.59;5111305;28;19919;-57
2021/06/07 04:21:22;;;;;;;;;;;;;;;30.79;29.82;94557.94;5113935;28;19922;-45
2021/06/07 04:23:49;;;;;;;;;;;;;;;30.25;30.21;94563.38;5114904;28;19924;-45
2021/06/07 04:26:16;;;;;;;;;;;;;;;30.43;29.80;94568.47;5116308;28;19920;-45
2021/06/07 04:28:43;;;;;;;;;;;;;;;30.47;29.63;94561.13;5115156;28;19927;-44
2021/06/07 04:31:10;;;;;;;;;;;;;;;30.58;29.91;94553.63;5116455;28;20242;-49
2021/06/07 04:33:37;;;;;;;;;;;;;;;31.17;28.94;94561.91;5116063;28;19923;-47
2021/06/07 04:36:04;;;;;;;;;;;;;;;30.99;29.17;94566.84;5114410;28;19923;-47
2021/06/07 04:38:31;;;;;;;;;;;;;;;30.83;29.76;94569.44;5115134;28;19915;-46
2021/06/07 04:40:58;;;;;;;;;;;;;;;31.35;28.77;94566.22;5115514;28;19923;-47
2021/06/07 04:43:25;;;;;;;;;;;;;;;31.27;28.87;94560.97;5115963;28;19923;-46
2021/06/07 04:45:52;;;;;;;;;;;;;;;31.22;28.40;94558.72;5116286;28;20322;-50
2021/06/07 04:48:20;;;;;;;;;;;;;;;31.09;29.14;94548.94;5115829;28;19923;-45
2021/06/07 04:50:48;;;;;;;;;;;;;;;31.50;28.17;94548.59;5097968;28;19920;-49
2021/06/07 04:53:15;;;;;;;;;;;;;;;31.62;28.43;94561.47;5096343;28;19978;-47
2021/06/07 04:55:44;;;;;;;;;;;;;;;31.65;28.31;94563.31;5116049;28;19920;-49
2021/06/07 04:58:15;;;;;;;;;;;;;;;31.79;27.92;94557.69;5098324;28;19916;-45
2021/06/07 05:00:43;;;;;;;;;;;;;;;32.47;27.21;94550.78;5114270;28;19915;-49
2021/06/07 05:03:10;;;;;;;;;;;;;;;32.29;27.52;94556.63;5115836;28;20253;-48
2021/06/07 05:05:37;;;;;;;;;;;;;;;32.59;27.21;94565.59;5097583;28;19927;-48
2021/06/07 05:08:04;;;;;;;;;;;;;;;32.56;27.12;94569.16;5113950;28;19915;-48
2021/06/07 05:10:31;;;;;;;;;;;;;;;32.50;26.37;94561.53;5114759;28;19924;-50
2021/06/07 05:12:58;;;;;;;;;;;;;;;32.02;27.22;94561.47;5115320;28;19916;-47
2021/06/07 05:15:25;;;;;;;;;;;;;;;32.25;27.31;94555.91;5115232;28;19930;-49
2021/06/07 05:17:52;;;;;;;;;;;;;;;31.82;28.03;94562.25;5114411;28;19916;-51
2021/06/07 05:20:20;;;;;;;;;;;;;;;32.14;27.09;94566.19;5115009;28;20607;-45
2021/06/07 05:22:47;;;;;;;;;;;;;;;33.40;25.13;94560.13;5114783;28;19923;-45
2021/06/07 05:25:15;;;;;;;;;;;;;;;32.21;27.16;94566.03;5115247;28;20242;-47
2021/06/07 05:27:46;;;;;;;;;;;;;;;32.23;27.16;94569.06;5113778;28;19920;-45
2021/06/07 05:30:14;;;;;;;;;;;;;;;32.65;26.78;94561.19;5115017;28;19920;-48
2021/06/07 05:32:40;;;;;;;;;;;;;;;32.70;26.39;94563.41;5114586;28;19927;-47
2021/06/07 05:35:09;;;;;;;;;;;;;;;33.40;25.51;94570.97;5115152;28;19927;-45
2021/06/07 05:37:36;;;;;;;;;;;;;;;32.28;27.46;94568.63;5114718;28;19946;-52
2021/06/07 05:40:03;;;;;;;;;;;;;;;32.34;26.66;94569.66;5114323;28;19924;-50
2021/06/07 05:42:30;;;;;;;;;;;;;;;32.62;26.53;94579.06;5114669;28;19923;-47
2021/06/07 05:44:57;;;;;;;;;;;;;;;32.55;26.60;94573.06;5114619;28;20365;-42
2021/06/07 05:47:24;;;;;;;;;;;;;;;33.46;25.01;94580.09;5114662;28;20246;-46
2021/06/07 05:49:51;;;;;;;;;;;;;;;32.38;26.11;94575.72;5114739;28;19915;-48
2021/06/07 05:52:18;;;;;;;;;;;;;;;32.50;26.55;94572.34;5096825;28;20323;-45
2021/06/07 05:54:45;;;;;;;;;;;;;;;32.83;26.09;94561.56;5114397;28;19916;-47
2021/06/07 05:57:12;;;;;;;;;;;;;;;33.28;25.45;94568.91;5114561;28;19916;-45
2021/06/07 05:59:39;;;;;;;;;;;;;;;33.16;25.62;94573.09;5114635;28;19920;-46
2021/06/07 06:02:07;;;;;;;;;;;;;;;32.98;25.54;94573.56;5114837;28;19928;-45
2021/06/07 06:04:34;;;;;;;;;;;;;;;33.13;25.30;94581.34;5112621;28;19922;-49
2021/06/07 06:07:01;;;;;;;;;;;;;;;33.58;24.83;94571.25;5114202;28;19927;-48
2021/06/07 06:09:28;;;;;;;;;;;;;;;32.84;25.84;94571.22;5115880;28;19932;-48
2021/06/07 06:11:56;;;;;;;;;;;;;;;33.77;24.66;94572.25;5119264;28;20544;-51
2021/06/07 06:14:26;;;;;;;;;;;;;;;33.53;25.16;94571.00;5118985;28;19923;-50
2021/06/07 06:16:53;;;;;;;;;;;;;;;34.62;23.90;94580.63;5118986;28;19916;-51
2021/06/07 06:19:23;;;;;;;;;;;;;;;33.47;25.11;94575.44;5118903;28;20314;-51
2021/06/07 06:21:51;;;;;;;;;;;;;;;33.76;24.87;94569.97;5119181;28;20238;-46
2021/06/07 06:24:18;;;;;;;;;;;;;;;34.24;24.34;94571.69;5118887;28;19915;-47
2021/06/07 06:26:45;;;;;;;;;;;;;;;34.11;24.55;94574.41;5116846;28;19927;-47
2021/06/07 06:29:12;;;;;;;;;;;;;;;34.18;24.52;94579.63;5118616;28;19920;-49
2021/06/07 06:31:39;;;;;;;;;;;;;;;34.72;23.39;94573.34;5117906;28;19931;-48
2021/06/07 06:34:06;;;;;;;;;;;;;;;34.22;23.89;94580.28;5118880;28;19927;-51
2021/06/07 06:36:34;;;;;;;;;;;;;;;34.80;23.48;94580.03;5089978;28;20219;-48
2021/06/07 06:39:02;;;;;;;;;;;;;;;34.84;23.31;94579.97;5118008;28;19934;-43
2021/06/07 06:41:30;;;;;;;;;;;;;;;34.99;22.83;94578.31;5118399;28;19919;-45
2021/06/07 06:43:57;;;;;;;;;;;;;;;34.27;23.88;94581.69;5118523;28;19996;-47
2021/06/07 06:46:25;;;;;;;;;;;;;;;34.66;23.58;94575.09;5118432;28;19927;-46
2021/06/07 06:48:52;;;;;;;;;;;;;;;35.05;23.13;94578.50;5118415;28;20306;-48
2021/06/07 06:51:19;;;;;;;;;;;;;;;35.23;23.03;94575.97;5115922;28;19927;-48
2021/06/07 06:53:46;;;;;;;;;;;;;;;34.73;23.27;94580.28;5118430;28;19926;-50
2021/06/07 06:56:13;;;;;;;;;;;;;;;34.87;23.33;94573.66;5118312;28;19946;-47
2021/06/07 06:58:40;;;;;;;;;;;;;;;35.31;23.28;94579.94;5097920;28;19923;-46
2021/06/07 07:01:08;;;;;;;;;;;;;;;35.37;23.09;94580.16;5117869;28;19920;-45
2021/06/07 07:03:35;;;;;;;;;;;;;;;35.81;22.72;94573.53;5118222;28;19920;-45
2021/06/07 07:06:02;;;;;;;;;;;;;;;35.45;22.72;94579.50;5117836;28;19924;-45
2021/06/07 07:08:29;;;;;;;;;;;;;;;35.12;23.23;94572.81;5118026;28;19916;-49
2021/06/07 07:10:56;;;;;;;;;;;;;;;34.42;23.91;94577.38;5117171;28;19930;-45
2021/06/07 07:13:23;;;;;;;;;;;;;;;35.44;22.78;94572.53;5117708;28;19923;-51
2021/06/07 07:15:50;;;;;;;;;;;;;;;35.51;22.57;94572.28;5099967;28;19916;-46
2021/06/07 07:18:17;;;;;;;;;;;;;;;35.86;21.90;94580.38;5118044;28;19926;-50
2021/06/07 07:20:44;;;;;;;;;;;;;;;35.33;22.84;94582.97;5117380;28;19916;-50
2021/06/07 07:23:11;;;;;;;;;;;;;;;35.68;22.04;94580.25;5117676;28;19920;-47
2021/06/07 07:25:39;;;;;;;;;;;;;;;35.00;23.50;94581.78;5117859;28;20234;-46
2021/06/07 07:28:06;;;;;;;;;;;;;;;35.39;22.70;94580.47;5117673;28;19920;-45
2021/06/07 07:30:34;;;;;;;;;;;;;;;35.32;22.51;94576.03;5117227;28;19924;-47
2021/06/07 07:33:02;;;;;;;;;;;;;;;35.97;22.47;94580.78;5117553;28;19927;-45
2021/06/07 07:35:29;;;;;;;;;;;;;;;35.46;22.70;94580.25;5117167;28;19927;-47
2021/06/07 07:37:56;;;;;;;;;;;;;;;35.42;23.07;94574.94;5117409;28;19916;-46
2021/06/07 07:40:23;;;;;;;;;;;;;;;35.36;22.56;94573.22;5116725;28;20266;-45
2021/06/07 07:42:51;;;;;;;;;;;;;;;35.97;22.25;94575.34;5117030;28;19920;-45
2021/06/07 07:45:19;;;;;;;;;;;;;;;35.13;23.36;94577.06;5117517;28;19920;-47
2021/06/07 07:47:46;;;;;;;;;;;;;;;35.57;22.69;94582.59;5099235;28;19920;-46
2021/06/07 07:50:16;;;;;;;;;;;;;;;35.89;21.99;94571.34;5116970;28;19946;-46
2021/06/07 07:52:42;;;;;;;;;;;;;;;35.96;22.08;94573.81;5116769;28;19966;-45
2021/06/07 07:55:10;;;;;;;;;;;;;;;35.93;22.70;94579.38;5117195;28;20562;-46
2021/06/07 07:57:37;;;;;;;;;;;;;;;35.63;22.36;94578.09;5117058;28;19923;-46
2021/06/07 08:00:05;;;;;;;;;;;;;;;36.01;22.26;94575.94;5116981;28;19920;-47
2021/06/07 08:02:42;;;;;;;;;;;;;;;36.13;21.94;94577.81;5116680;28;20345;-48
2021/06/07 08:05:09;;;;;;;;;;;;;;;36.01;22.06;94581.38;5117059;28;19919;-48
2021/06/07 08:07:37;;;;;;;;;;;;;;;35.77;22.70;94577.59;5116722;28;19919;-45
2021/06/07 08:10:04;;;;;;;;;;;;;;;36.35;21.62;94574.31;5115892;28;19927;-46
2021/06/07 08:12:31;;;;;;;;;;;;;;;36.32;21.68;94577.94;5116310;28;19923;-50
2021/06/07 08:14:58;;;;;;;;;;;;;;;35.60;22.49;94585.16;5116529;28;19920;-46
2021/06/07 08:17:25;;;;;;;;;;;;;;;36.50;21.83;94588.16;5098625;28;20303;-46
2021/06/07 08:19:52;;;;;;;;;;;;;;;35.72;22.35;94580.88;5114495;28;20000;-49
2021/06/07 08:22:19;;;;;;;;;;;;;;;36.03;22.30;94576.25;5116300;28;20029;-47
2021/06/07 08:24:46;;;;;;;;;;;;;;;36.32;21.64;94581.41;5116248;28;19920;-45
2021/06/07 08:27:13;;;;;;;;;;;;;;;36.63;21.64;94589.53;5116068;28;19919;-44
2021/06/07 08:29:40;;;;;;;;;;;;;;;35.80;22.54;94588.34;5116102;28;19920;-47
2021/06/07 08:32:07;;;;;;;;;;;;;;;36.06;21.88;94583.53;5095702;28;20311;-44
2021/06/07 08:34:34;;;;;;;;;;;;;;;36.11;22.13;94579.47;5116173;28;19920;-45
2021/06/07 08:37:01;;;;;;;;;;;;;;;36.33;22.42;94584.91;5115925;28;20220;-48
2021/06/07 08:39:28;;;;;;;;;;;;;;;36.80;21.51;94572.97;5115565;28;20227;-44
2021/06/07 08:41:57;;;;;;;;;;;;;;;36.26;22.02;94568.81;5115734;28;19916;-46
2021/06/07 08:44:24;;;;;;;;;;;;;;;36.47;21.53;94570.75;5106755;28;19923;-46
2021/06/07 08:46:51;;;;;;;;;;;;;;;36.32;21.74;94567.06;5115684;28;19931;-45
2021/06/07 08:49:18;;;;;;;;;;;;;;;37.12;20.66;94568.94;5115972;28;19915;-45
2021/06/07 08:51:45;;;;;;;;;;;;;;;36.71;21.75;94569.00;5114816;28;20385;-50
2021/06/07 08:54:12;;;;;;;;;;;;;;;36.56;21.59;94570.78;5114950;28;19920;-46
2021/06/07 08:56:40;;;;;;;;;;;;;;;35.75;22.75;94563.69;5115272;28;19920;-46
2021/06/07 08:59:07;;;;;;;;;;;;;;;36.24;21.75;94565.78;5115831;28;19923;-47
2021/06/07 09:01:34;;;;;;;;;;;;;;;36.96;20.00;94567.28;5115388;28;20311;-46
2021/06/07 09:04:17;;;;;;;;;;;;;;;36.34;21.14;94565.41;5115750;28;19924;-46
2021/06/07 09:06:45;;;;;;;;;;;;;;;36.67;20.95;94562.91;5113973;28;19920;-46
2021/06/07 09:09:13;;;;;;;;;;;;;;;36.33;21.43;94571.28;5114159;28;19935;-48
2021/06/07 09:11:41;;;;;;;;;;;;;;;36.80;21.38;94572.97;5115849;28;19943;-48
2021/06/07 09:14:17;;;;;;;;;;;;;;;35.89;22.96;94574.06;5115659;28;19922;-49
2021/06/07 09:16:44;;;;;;;;;;;;;;;35.67;22.64;94573.31;5114045;28;19915;-48
2021/06/07 09:19:18;;;;;;;;;;;;;;;35.95;22.14;94572.31;5114764;28;19927;-44
2021/06/07 09:21:45;;;;;;;;;;;;;;;35.25;22.32;94570.84;5115634;28;19916;-47
2021/06/07 09:24:14;;;;;;;;;;;;;;;34.53;23.39;94577.03;5113941;28;19919;-48
2021/06/07 09:26:42;;;;;;;;;;;;;;;34.01;24.54;94575.47;5115086;28;20311;-47
2021/06/07 09:29:18;;;;;;;;;;;;;;;33.02;26.42;94578.88;5115342;28;19919;-48
2021/06/07 09:31:50;;;;;;;;;;;;;;;33.17;26.93;94577.34;5115519;28;20238;-45
2021/06/07 09:34:30;;;;;;;;;;;;;;;32.87;27.75;94583.91;5115498;28;19924;-48
2021/06/07 09:37:04;;;;;;;;;;;;;;;32.63;28.89;94579.81;5114683;28;19920;-46
2021/06/07 09:39:31;;;;;;;;;;;;;;;33.08;28.94;94577.97;5114497;28;19931;-48
2021/06/07 09:42:03;;;;;;;;;;;;;;;33.33;28.11;94576.59;5115326;28;19989;-46
2021/06/07 09:44:37;;;;;;;;;;;;;;;33.61;28.10;94585.88;5114590;28;20357;-48
2021/06/07 09:47:13;;;;;;;;;;;;;;;33.35;28.45;94590.47;5114871;28;19950;-46
2021/06/07 09:49:52;;;;;;;;;;;;;;;32.33;30.05;94589.00;5114819;28;19924;-45
2021/06/07 09:52:22;;;;;;;;;;;;;;;33.26;28.75;94587.56;5115158;28;19920;-46
2021/06/07 09:55:01;;;;;;;;;;;;;;;32.35;30.05;94598.22;5113678;28;19916;-47
2021/06/07 09:57:41;;;;;;;;;;;;;;;32.11;30.95;94585.97;5114346;28;20222;-45
2021/06/07 10:00:08;;;;;;;;;;;;;;;33.06;29.04;94593.88;5113878;28;19923;-44
2021/06/07 10:02:37;;;;;;;;;;;;;;;32.68;30.22;94587.41;5114979;28;19920;-47
2021/06/07 10:05:04;;;;;;;;;;;;;;;32.51;30.36;94584.69;5115153;28;19926;-49
2021/06/07 10:07:31;;;;;;;;;;;;;;;33.44;28.99;94582.47;5114044;28;19924;-46
2021/06/07 10:10:20;;;;;;;;;;;;;;;33.18;29.63;94588.94;5114180;28;19924;-51
2021/06/07 10:12:47;;;;;;;;;;;;;;;32.79;29.88;94593.34;5114121;28;20234;-47
2021/06/07 10:15:15;;;;;;;;;;;;;;;33.70;28.40;94586.78;5114641;28;19916;-46
2021/06/07 10:17:42;;;;;;;;;;;;;;;32.95;29.69;94584.47;5096755;28;19925;-51
2021/06/07 10:22:37;;;;;;;;;;;;;;;32.65;30.19;94586.31;5114733;28;20234;-45
2021/06/07 10:25:05;;;;;;;;;;;;;;;33.31;28.97;94592.44;5094590;28;19916;-47
2021/06/07 10:27:32;;;;;;;;;;;;;;;32.36;30.79;94591.63;5096364;28;19920;-54
2021/06/07 10:29:59;;;;;;;;;;;;;;;32.43;30.77;94588.00;5114717;28;20329;-50
2021/06/07 10:32:28;;;;;;;;;;;;;;;32.07;31.22;94588.75;5114617;28;19915;-57
2021/06/07 10:34:57;;;;;;;;;;;;;;;32.49;30.67;94589.00;5114328;28;19920;-52
2021/06/07 10:37:24;;;;;;;;;;;;;;;31.74;31.87;94595.22;5114482;28;19919;-52
2021/06/07 10:39:51;;;;;;;;;;;;;;;32.28;30.84;94603.78;5113570;28;19931;-54
2021/06/07 10:42:24;;;;;;;;;;;;;;;33.89;28.48;94597.91;5114359;28;19916;-47
2021/06/07 10:44:58;;;;;;;;;;;;;;;33.27;29.25;94597.97;5095865;28;19919;-49
2021/06/07 10:47:27;;;;;;;;;;;;;;;33.98;28.52;94587.19;5113864;28;19927;-55
2021/06/07 10:49:54;;;;;;;;;;;;;;;32.74;30.09;94593.84;5114546;28;19920;-52
2021/06/07 10:52:28;;;;;;;;;;;;;;;32.85;29.74;94583.56;5114487;28;19923;-45
2021/06/07 10:55:02;;;;;;;;;;;;;;;32.16;30.21;94585.47;5114738;28;19919;-52
2021/06/07 10:57:30;;;;;;;;;;;;;;;31.88;31.33;94587.59;5115810;28;19916;-55
2021/06/07 10:59:58;;;;;;;;;;;;;;;31.46;31.98;94564.84;5118139;28;19923;-53
2021/06/07 11:02:26;;;;;;;;;;;;;;;31.96;31.20;94577.38;5118515;28;19920;-54
2021/06/07 11:05:00;;;;;;;;;;;;;;;31.69;31.43;94569.41;5117860;28;20137;-52
2021/06/07 11:07:27;;;;;;;;;;;;;;;32.31;30.18;94570.50;5117831;28;19920;-47
2021/06/07 11:10:14;;;;;;;;;;;;;;;32.33;29.99;94565.41;5117083;28;19927;-51
2021/06/07 11:12:41;;;;;;;;;;;;;;;32.19;29.98;94565.69;5117729;28;19916;-49
2021/06/07 11:15:11;;;;;;;;;;;;;;;33.30;28.76;94566.53;5117590;28;19920;-51
2021/06/07 11:17:38;;;;;;;;;;;;;;;32.88;29.27;94558.34;5116229;28;20254;-53
2021/06/07 11:20:06;;;;;;;;;;;;;;;33.22;28.46;94565.22;5117459;28;19920;-55
2021/06/07 11:22:51;;;;;;;;;;;;;;;32.80;29.10;94557.00;5117519;28;19927;-53
2021/06/07 11:25:18;;;;;;;;;;;;;;;33.04;29.77;94554.84;5117274;28;19916;-45
2021/06/07 11:27:45;;;;;;;;;;;;;;;32.77;29.83;94557.81;5117348;28;19946;-54
2021/06/07 11:30:15;;;;;;;;;;;;;;;33.04;29.94;94555.59;5115665;28;19915;-43
2021/06/07 11:32:42;;;;;;;;;;;;;;;32.17;30.95;94554.53;5116687;28;19920;-53
2021/06/07 11:35:29;;;;;;;;;;;;;;;32.61;30.86;94552.41;5117447;28;19924;-53
2021/06/07 11:38:16;;;;;;;;;;;;;;;33.52;30.15;94553.22;5116160;28;19915;-55
2021/06/07 11:40:43;;;;;;;;;;;;;;;33.96;28.77;94548.91;5116420;28;19926;-51
2021/06/07 11:43:10;;;;;;;;;;;;;;;34.27;28.42;94555.31;5117369;28;19923;-55
2021/06/07 11:45:41;;;;;;;;;;;;;;;34.31;28.63;94547.81;5116957;28;19923;-55
2021/06/07 11:48:08;;;;;;;;;;;;;;;33.95;30.15;94550.09;5116606;28;19919;-55
2021/06/07 11:50:40;;;;;;;;;;;;;;;34.56;28.31;94549.78;5117054;28;19924;-56
2021/06/07 11:53:15;;;;;;;;;;;;;;;34.95;26.53;94541.59;5116974;28;19916;-56
2021/06/07 11:55:43;;;;;;;;;;;;;;;34.08;28.37;94542.72;5116923;28;19916;-55
2021/06/07 11:58:09;;;;;;;;;;;;;;;35.13;26.56;94547.19;5116495;28;19924;-53
2021/06/07 12:00:40;;;;;;;;;;;;;;;35.04;27.72;94539.72;5116836;28;19916;-54
2021/06/07 12:03:16;;;;;;;;;;;;;;;35.34;27.88;94549.19;5116958;28;19926;-51
2021/06/07 12:05:43;;;;;;;;;;;;;;;35.65;27.05;94543.06;5116268;28;19926;-56
2021/06/07 12:08:11;;;;;;;;;;;;;;;35.28;27.34;94536.59;5115492;28;19931;-54
2021/06/07 12:10:38;;;;;;;;;;;;;;;35.13;27.21;94541.75;5096938;28;20402;-55
2021/06/07 12:13:15;;;;;;;;;;;;;;;34.89;26.40;94538.69;5117061;28;19920;-53
2021/06/07 12:15:42;;;;;;;;;;;;;;;35.73;26.02;94539.66;5116787;28;19924;-56
2021/06/07 12:18:10;;;;;;;;;;;;;;;35.48;25.62;94540.56;5116315;28;19986;-49
2021/06/07 12:20:37;;;;;;;;;;;;;;;36.33;25.34;94533.19;5116632;28;19915;-49
2021/06/07 12:23:04;;;;;;;;;;;;;;;35.70;25.06;94534.34;5116801;28;19930;-52
2021/06/07 12:25:45;;;;;;;;;;;;;;;35.47;25.41;94528.16;5116505;28;19923;-52
2021/06/07 12:28:21;;;;;;;;;;;;;;;35.30;25.21;94534.94;5116091;28;19923;-46
2021/06/07 12:30:49;;;;;;;;;;;;;;;36.03;24.16;94530.03;5116241;28;19923;-53
2021/06/07 12:33:26;;;;;;;;;;;;;;;35.28;26.01;94523.78;5116593;28;19924;-51
2021/06/07 12:35:53;;;;;;;;;;;;;;;35.60;24.78;94519.94;5116140;28;20323;-52
2021/06/07 12:38:20;;;;;;;;;;;;;;;35.47;24.49;94522.72;5113871;28;19923;-49
2021/06/07 12:40:48;;;;;;;;;;;;;;;35.23;24.95;94524.34;5115682;28;19922;-52
2021/06/07 12:43:17;;;;;;;;;;;;;;;35.12;25.22;94524.69;5116399;28;20326;-47
2021/06/07 12:45:45;;;;;;;;;;;;;;;35.49;23.69;94508.69;5116176;28;19925;-52
2021/06/07 12:48:13;;;;;;;;;;;;;;;35.06;25.17;94503.97;5115723;28;19920;-46
2021/06/07 12:50:41;;;;;;;;;;;;;;;35.62;24.59;94516.75;5114383;28;20238;-52
2021/06/07 12:53:08;;;;;;;;;;;;;;;35.52;24.33;94500.41;5116088;28;19915;-55
2021/06/07 12:55:36;;;;;;;;;;;;;;;35.35;25.01;94509.94;5098010;28;19924;-52
2021/06/07 12:58:07;;;;;;;;;;;;;;;35.49;23.98;94506.75;5099719;28;19924;-55